Key Lake, Canada
Current Conditions -  °F | °C
As of 1:00 PM on Friday 31 Oct 2014 (Local Time) from CYKJ Reporting Station
Broken Clouds Broken Clouds  
Wind Chill: 24°   Ceiling: 1600
Heat Index: 32°   Visibility: 9mi
Dew Point: 25°   Wind: 9mph
Humidity: 75%   Direction: 170°S
Pressure: 29.8"   Gusts: 17mph
Location:  57.21°N, 105.66°W
Report Text: CYKJ 311900Z AUTO 17008G15KT 9SM BKN016 BKN120 M00/M04 A2980 RMK SLP122
Loading
Personal Weather Stations






























Interactive Weather Map
Tropical Storm Tracking
New forecast layout! Learn more

10-Day Weather Forecast

Advertisements
Track Severe Weather on mobile